sensor_id;sensor_type;location;lat;lon;timestamp;P1;durP1;ratioP1;P2;durP2;ratioP2
34920;SDS011;21128;50.016;20.002;2023-06-01T00:00:56;14.60;;;6.93;;
34920;SDS011;21128;50.016;20.002;2023-06-01T00:03:42;22.53;;;6.87;;
34920;SDS011;21128;50.016;20.002;2023-06-01T00:06:11;19.80;;;7.00;;
34920;SDS011;21128;50.016;20.002;2023-06-01T00:08:37;21.20;;;7.28;;
34920;SDS011;21128;50.016;20.002;2023-06-01T00:11:04;16.27;;;5.87;;
34920;SDS011;21128;50.016;20.002;2023-06-01T00:13:32;17.23;;;6.30;;
34920;SDS011;21128;50.016;20.002;2023-06-01T00:15:59;18.80;;;5.87;;
34920;SDS011;21128;50.016;20.002;2023-06-01T00:18:26;9.63;;;5.57;;
34920;SDS011;21128;50.016;20.002;2023-06-01T00:20:53;14.20;;;6.87;;
34920;SDS011;21128;50.016;20.002;2023-06-01T00:23:20;13.58;;;7.50;;
34920;SDS011;21128;50.016;20.002;2023-06-01T00:25:48;11.08;;;6.72;;
34920;SDS011;21128;50.016;20.002;2023-06-01T00:28:15;18.43;;;7.17;;
34920;SDS011;21128;50.016;20.002;2023-06-01T00:30:42;10.85;;;6.80;;
34920;SDS011;21128;50.016;20.002;2023-06-01T00:33:09;16.80;;;7.12;;
34920;SDS011;21128;50.016;20.002;2023-06-01T00:35:36;14.87;;;6.40;;
34920;SDS011;21128;50.016;20.002;2023-06-01T00:38:02;17.70;;;6.85;;
34920;SDS011;21128;50.016;20.002;2023-06-01T00:40:29;14.60;;;5.90;;
34920;SDS011;21128;50.016;20.002;2023-06-01T00:42:57;12.35;;;6.10;;
34920;SDS011;21128;50.016;20.002;2023-06-01T00:45:23;14.23;;;5.80;;
34920;SDS011;21128;50.016;20.002;2023-06-01T00:47:50;11.30;;;6.93;;
34920;SDS011;21128;50.016;20.002;2023-06-01T00:50:18;11.17;;;6.23;;
34920;SDS011;21128;50.016;20.002;2023-06-01T00:52:45;8.90;;;5.87;;
34920;SDS011;21128;50.016;20.002;2023-06-01T00:55:15;13.70;;;6.83;;
34920;SDS011;21128;50.016;20.002;2023-06-01T00:57:42;12.93;;;6.83;;
34920;SDS011;21128;50.016;20.002;2023-06-01T01:00:10;15.07;;;7.33;;
34920;SDS011;21128;50.016;20.002;2023-06-01T01:02:39;11.23;;;6.03;;
34920;SDS011;21128;50.016;20.002;2023-06-01T01:05:08;9.97;;;5.57;;
34920;SDS011;21128;50.016;20.002;2023-06-01T01:10:59;11.50;;;5.93;;
34920;SDS011;21128;50.016;20.002;2023-06-01T01:13:37;17.87;;;5.80;;
34920;SDS011;21128;50.016;20.002;2023-06-01T01:21:34;8.07;;;5.10;;
34920;SDS011;21128;50.016;20.002;2023-06-01T01:24:13;12.17;;;5.80;;
34920;SDS011;21128;50.016;20.002;2023-06-01T01:27:04;15.20;;;6.67;;
34920;SDS011;21128;50.016;20.002;2023-06-01T01:29:41;13.70;;;6.37;;
34920;SDS011;21128;50.016;20.002;2023-06-01T01:32:10;10.73;;;6.07;;
34920;SDS011;21128;50.016;20.002;2023-06-01T01:34:39;14.10;;;7.57;;
34920;SDS011;21128;50.016;20.002;2023-06-01T01:37:09;11.03;;;6.27;;
34920;SDS011;21128;50.016;20.002;2023-06-01T01:39:36;18.55;;;6.35;;
34920;SDS011;21128;50.016;20.002;2023-06-01T01:42:03;12.37;;;5.90;;
34920;SDS011;21128;50.016;20.002;2023-06-01T01:44:32;12.37;;;6.10;;
34920;SDS011;21128;50.016;20.002;2023-06-01T01:49:53;15.20;;;7.20;;
34920;SDS011;21128;50.016;20.002;2023-06-01T01:52:26;13.03;;;6.13;;
34920;SDS011;21128;50.016;20.002;2023-06-01T01:55:05;16.47;;;6.67;;
34920;SDS011;21128;50.016;20.002;2023-06-01T01:57:34;12.03;;;6.40;;
34920;SDS011;21128;50.016;20.002;2023-06-01T02:00:03;15.10;;;6.75;;
34920;SDS011;21128;50.016;20.002;2023-06-01T02:02:34;14.40;;;7.13;;
34920;SDS011;21128;50.016;20.002;2023-06-01T02:05:01;8.70;;;5.40;;
34920;SDS011;21128;50.016;20.002;2023-06-01T02:07:29;15.47;;;6.37;;
34920;SDS011;21128;50.016;20.002;2023-06-01T02:09:57;10.53;;;5.53;;
34920;SDS011;21128;50.016;20.002;2023-06-01T02:12:24;10.90;;;4.93;;
34920;SDS011;21128;50.016;20.002;2023-06-01T02:14:51;13.47;;;5.53;;
34920;SDS011;21128;50.016;20.002;2023-06-01T02:17:18;11.20;;;5.40;;
34920;SDS011;21128;50.016;20.002;2023-06-01T02:19:48;12.47;;;5.77;;
34920;SDS011;21128;50.016;20.002;2023-06-01T02:22:15;13.90;;;5.70;;
34920;SDS011;21128;50.016;20.002;2023-06-01T02:24:41;20.40;;;6.17;;
34920;SDS011;21128;50.016;20.002;2023-06-01T02:27:08;9.33;;;5.93;;
34920;SDS011;21128;50.016;20.002;2023-06-01T02:29:35;10.78;;;5.72;;
34920;SDS011;21128;50.016;20.002;2023-06-01T02:32:02;13.00;;;5.37;;
34920;SDS011;21128;50.016;20.002;2023-06-01T02:34:30;8.83;;;5.13;;
34920;SDS011;21128;50.016;20.002;2023-06-01T02:36:57;10.87;;;5.90;;
34920;SDS011;21128;50.016;20.002;2023-06-01T02:39:24;14.50;;;5.22;;
34920;SDS011;21128;50.016;20.002;2023-06-01T02:41:51;10.67;;;5.53;;
34920;SDS011;21128;50.016;20.002;2023-06-01T02:44:18;9.27;;;5.43;;
34920;SDS011;21128;50.016;20.002;2023-06-01T02:46:45;9.90;;;5.60;;
34920;SDS011;21128;50.016;20.002;2023-06-01T02:49:12;12.10;;;5.65;;
34920;SDS011;21128;50.016;20.002;2023-06-01T02:51:39;12.53;;;5.37;;
34920;SDS011;21128;50.016;20.002;2023-06-01T02:54:06;13.53;;;5.87;;
34920;SDS011;21128;50.016;20.002;2023-06-01T02:56:33;11.33;;;5.97;;
34920;SDS011;21128;50.016;20.002;2023-06-01T02:59:00;11.40;;;5.63;;
34920;SDS011;21128;50.016;20.002;2023-06-01T03:01:27;11.17;;;6.00;;
34920;SDS011;21128;50.016;20.002;2023-06-01T03:03:54;14.67;;;6.03;;
34920;SDS011;21128;50.016;20.002;2023-06-01T03:06:22;12.23;;;5.27;;
34920;SDS011;21128;50.016;20.002;2023-06-01T03:08:49;14.03;;;6.35;;
34920;SDS011;21128;50.016;20.002;2023-06-01T03:11:16;19.20;;;6.20;;
34920;SDS011;21128;50.016;20.002;2023-06-01T03:13:43;12.68;;;5.58;;
34920;SDS011;21128;50.016;20.002;2023-06-01T03:16:10;15.10;;;6.33;;
34920;SDS011;21128;50.016;20.002;2023-06-01T03:18:37;12.57;;;5.30;;
34920;SDS011;21128;50.016;20.002;2023-06-01T03:21:04;13.03;;;5.40;;
34920;SDS011;21128;50.016;20.002;2023-06-01T03:23:30;8.55;;;5.05;;
34920;SDS011;21128;50.016;20.002;2023-06-01T03:25:57;10.53;;;5.80;;
34920;SDS011;21128;50.016;20.002;2023-06-01T03:28:24;12.40;;;5.90;;
34920;SDS011;21128;50.016;20.002;2023-06-01T03:30:51;10.30;;;5.40;;
34920;SDS011;21128;50.016;20.002;2023-06-01T03:33:18;10.50;;;4.83;;
34920;SDS011;21128;50.016;20.002;2023-06-01T03:35:45;13.30;;;5.10;;
34920;SDS011;21128;50.016;20.002;2023-06-01T03:38:13;13.20;;;5.37;;
34920;SDS011;21128;50.016;20.002;2023-06-01T03:40:39;11.23;;;5.60;;
34920;SDS011;21128;50.016;20.002;2023-06-01T03:43:06;9.23;;;5.30;;
34920;SDS011;21128;50.016;20.002;2023-06-01T03:45:33;12.13;;;5.27;;
34920;SDS011;21128;50.016;20.002;2023-06-01T03:48:01;8.98;;;5.17;;
34920;SDS011;21128;50.016;20.002;2023-06-01T03:50:27;10.50;;;5.20;;
34920;SDS011;21128;50.016;20.002;2023-06-01T03:52:54;14.13;;;4.60;;
34920;SDS011;21128;50.016;20.002;2023-06-01T03:55:21;11.77;;;5.40;;
34920;SDS011;21128;50.016;20.002;2023-06-01T03:57:49;12.03;;;5.70;;
34920;SDS011;21128;50.016;20.002;2023-06-01T04:00:16;11.17;;;5.03;;
34920;SDS011;21128;50.016;20.002;2023-06-01T04:02:50;9.13;;;4.53;;
34920;SDS011;21128;50.016;20.002;2023-06-01T04:05:20;15.03;;;5.43;;
34920;SDS011;21128;50.016;20.002;2023-06-01T04:07:48;12.25;;;5.65;;
34920;SDS011;21128;50.016;20.002;2023-06-01T04:10:18;12.33;;;5.87;;
34920;SDS011;21128;50.016;20.002;2023-06-01T04:12:46;10.70;;;5.37;;
34920;SDS011;21128;50.016;20.002;2023-06-01T04:15:16;11.93;;;5.17;;
34920;SDS011;21128;50.016;20.002;2023-06-01T04:17:44;14.67;;;4.90;;
34920;SDS011;21128;50.016;20.002;2023-06-01T04:20:12;13.07;;;5.17;;
34920;SDS011;21128;50.016;20.002;2023-06-01T04:22:42;9.75;;;4.60;;
34920;SDS011;21128;50.016;20.002;2023-06-01T04:25:11;15.35;;;5.70;;
34920;SDS011;21128;50.016;20.002;2023-06-01T04:27:45;14.87;;;6.00;;
34920;SDS011;21128;50.016;20.002;2023-06-01T04:30:15;16.07;;;5.83;;
34920;SDS011;21128;50.016;20.002;2023-06-01T04:32:42;11.90;;;5.23;;
34920;SDS011;21128;50.016;20.002;2023-06-01T04:35:14;9.07;;;4.60;;
34920;SDS011;21128;50.016;20.002;2023-06-01T04:37:41;14.07;;;5.70;;
34920;SDS011;21128;50.016;20.002;2023-06-01T04:40:09;10.55;;;4.75;;
34920;SDS011;21128;50.016;20.002;2023-06-01T04:42:38;11.33;;;5.03;;
34920;SDS011;21128;50.016;20.002;2023-06-01T04:45:12;10.30;;;4.90;;
34920;SDS011;21128;50.016;20.002;2023-06-01T04:47:40;20.05;;;5.20;;
34920;SDS011;21128;50.016;20.002;2023-06-01T04:50:08;20.07;;;5.60;;
34920;SDS011;21128;50.016;20.002;2023-06-01T04:52:36;13.83;;;4.60;;
34920;SDS011;21128;50.016;20.002;2023-06-01T04:55:05;9.43;;;4.70;;
34920;SDS011;21128;50.016;20.002;2023-06-01T04:57:33;14.50;;;5.17;;
34920;SDS011;21128;50.016;20.002;2023-06-01T05:00:02;8.45;;;4.45;;
34920;SDS011;21128;50.016;20.002;2023-06-01T05:02:38;13.20;;;4.77;;
34920;SDS011;21128;50.016;20.002;2023-06-01T05:05:06;8.80;;;4.87;;
34920;SDS011;21128;50.016;20.002;2023-06-01T05:07:36;13.90;;;4.70;;
34920;SDS011;21128;50.016;20.002;2023-06-01T05:10:06;13.90;;;4.30;;
34920;SDS011;21128;50.016;20.002;2023-06-01T05:12:35;8.67;;;4.47;;
34920;SDS011;21128;50.016;20.002;2023-06-01T05:15:03;9.33;;;4.67;;
34920;SDS011;21128;50.016;20.002;2023-06-01T05:17:33;10.03;;;3.67;;
34920;SDS011;21128;50.016;20.002;2023-06-01T05:20:00;14.77;;;4.03;;
34920;SDS011;21128;50.016;20.002;2023-06-01T05:22:27;19.40;;;4.80;;
34920;SDS011;21128;50.016;20.002;2023-06-01T05:24:54;14.07;;;4.30;;
34920;SDS011;21128;50.016;20.002;2023-06-01T05:27:21;7.50;;;4.20;;
34920;SDS011;21128;50.016;20.002;2023-06-01T05:29:48;9.23;;;5.20;;
34920;SDS011;21128;50.016;20.002;2023-06-01T05:32:15;9.97;;;4.73;;
34920;SDS011;21128;50.016;20.002;2023-06-01T05:34:42;11.50;;;4.53;;
34920;SDS011;21128;50.016;20.002;2023-06-01T05:37:09;16.05;;;5.15;;
34920;SDS011;21128;50.016;20.002;2023-06-01T05:39:36;11.90;;;5.00;;
34920;SDS011;21128;50.016;20.002;2023-06-01T05:42:03;8.50;;;4.93;;
34920;SDS011;21128;50.016;20.002;2023-06-01T05:44:32;8.20;;;4.85;;
34920;SDS011;21128;50.016;20.002;2023-06-01T05:46:59;10.17;;;4.70;;
34920;SDS011;21128;50.016;20.002;2023-06-01T05:49:26;7.30;;;4.42;;
34920;SDS011;21128;50.016;20.002;2023-06-01T05:51:58;13.70;;;6.45;;
34920;SDS011;21128;50.016;20.002;2023-06-01T05:54:25;16.70;;;4.85;;
34920;SDS011;21128;50.016;20.002;2023-06-01T05:56:52;8.98;;;3.83;;
34920;SDS011;21128;50.016;20.002;2023-06-01T05:59:19;13.57;;;4.60;;
34920;SDS011;21128;50.016;20.002;2023-06-01T06:01:46;11.10;;;4.30;;
34920;SDS011;21128;50.016;20.002;2023-06-01T06:04:14;11.43;;;5.00;;
34920;SDS011;21128;50.016;20.002;2023-06-01T06:06:41;9.93;;;4.60;;
34920;SDS011;21128;50.016;20.002;2023-06-01T06:09:08;10.20;;;5.20;;
34920;SDS011;21128;50.016;20.002;2023-06-01T06:11:36;14.80;;;4.70;;
34920;SDS011;21128;50.016;20.002;2023-06-01T06:14:04;9.65;;;4.80;;
34920;SDS011;21128;50.016;20.002;2023-06-01T06:16:31;16.35;;;4.65;;
34920;SDS011;21128;50.016;20.002;2023-06-01T06:18:58;9.63;;;5.13;;
34920;SDS011;21128;50.016;20.002;2023-06-01T06:21:26;8.18;;;4.47;;
34920;SDS011;21128;50.016;20.002;2023-06-01T06:23:53;11.80;;;4.50;;
34920;SDS011;21128;50.016;20.002;2023-06-01T06:26:25;10.28;;;4.17;;
34920;SDS011;21128;50.016;20.002;2023-06-01T06:28:53;15.50;;;4.53;;
34920;SDS011;21128;50.016;20.002;2023-06-01T06:31:21;20.47;;;4.97;;
34920;SDS011;21128;50.016;20.002;2023-06-01T06:33:48;21.73;;;5.30;;
34920;SDS011;21128;50.016;20.002;2023-06-01T06:36:16;17.57;;;4.77;;
34920;SDS011;21128;50.016;20.002;2023-06-01T06:38:43;11.13;;;4.33;;
34920;SDS011;21128;50.016;20.002;2023-06-01T06:41:11;16.02;;;5.05;;
34920;SDS011;21128;50.016;20.002;2023-06-01T06:43:38;13.43;;;4.53;;
34920;SDS011;21128;50.016;20.002;2023-06-01T06:46:05;9.30;;;4.80;;
34920;SDS011;21128;50.016;20.002;2023-06-01T06:48:32;10.65;;;4.30;;
34920;SDS011;21128;50.016;20.002;2023-06-01T06:50:59;13.67;;;4.50;;
34920;SDS011;21128;50.016;20.002;2023-06-01T06:53:27;14.07;;;4.43;;
34920;SDS011;21128;50.016;20.002;2023-06-01T06:55:54;14.33;;;4.87;;
34920;SDS011;21128;50.016;20.002;2023-06-01T06:58:21;16.57;;;4.53;;
34920;SDS011;21128;50.016;20.002;2023-06-01T07:00:48;23.10;;;5.08;;
34920;SDS011;21128;50.016;20.002;2023-06-01T07:03:15;10.25;;;5.10;;
34920;SDS011;21128;50.016;20.002;2023-06-01T07:05:43;17.70;;;4.72;;
34920;SDS011;21128;50.016;20.002;2023-06-01T07:08:11;17.80;;;4.80;;
34920;SDS011;21128;50.016;20.002;2023-06-01T07:10:38;14.03;;;5.17;;
34920;SDS011;21128;50.016;20.002;2023-06-01T07:13:06;11.83;;;5.33;;
34920;SDS011;21128;50.016;20.002;2023-06-01T07:15:33;9.87;;;4.53;;
34920;SDS011;21128;50.016;20.002;2023-06-01T07:18:00;12.45;;;4.85;;
34920;SDS011;21128;50.016;20.002;2023-06-01T07:20:27;8.65;;;4.25;;
34920;SDS011;21128;50.016;20.002;2023-06-01T07:22:54;14.70;;;5.23;;
34920;SDS011;21128;50.016;20.002;2023-06-01T07:25:21;12.80;;;4.45;;
34920;SDS011;21128;50.016;20.002;2023-06-01T07:27:48;12.33;;;3.83;;
34920;SDS011;21128;50.016;20.002;2023-06-01T07:30:16;13.20;;;4.03;;
34920;SDS011;21128;50.016;20.002;2023-06-01T07:32:43;10.27;;;5.00;;
34920;SDS011;21128;50.016;20.002;2023-06-01T07:35:10;12.63;;;4.17;;
34920;SDS011;21128;50.016;20.002;2023-06-01T07:37:37;8.43;;;3.42;;
34920;SDS011;21128;50.016;20.002;2023-06-01T07:40:04;13.05;;;3.75;;
34920;SDS011;21128;50.016;20.002;2023-06-01T07:42:33;11.20;;;3.50;;
34920;SDS011;21128;50.016;20.002;2023-06-01T07:45:00;12.00;;;3.65;;
34920;SDS011;21128;50.016;20.002;2023-06-01T07:47:27;12.23;;;3.83;;
34920;SDS011;21128;50.016;20.002;2023-06-01T07:49:55;10.25;;;3.25;;
34920;SDS011;21128;50.016;20.002;2023-06-01T07:52:22;12.33;;;3.37;;
34920;SDS011;21128;50.016;20.002;2023-06-01T07:54:50;10.73;;;3.17;;
34920;SDS011;21128;50.016;20.002;2023-06-01T07:57:18;6.87;;;3.33;;
34920;SDS011;21128;50.016;20.002;2023-06-01T07:59:45;12.13;;;3.37;;
34920;SDS011;21128;50.016;20.002;2023-06-01T08:02:12;11.75;;;3.40;;
34920;SDS011;21128;50.016;20.002;2023-06-01T08:04:40;19.15;;;3.30;;
34920;SDS011;21128;50.016;20.002;2023-06-01T08:07:08;8.70;;;3.33;;
34920;SDS011;21128;50.016;20.002;2023-06-01T08:09:36;7.12;;;2.92;;
34920;SDS011;21128;50.016;20.002;2023-06-01T08:12:06;6.70;;;4.30;;
34920;SDS011;21128;50.016;20.002;2023-06-01T08:14:34;10.23;;;3.63;;
34920;SDS011;21128;50.016;20.002;2023-06-01T08:17:01;6.57;;;2.83;;
34920;SDS011;21128;50.016;20.002;2023-06-01T08:19:28;4.30;;;2.30;;
34920;SDS011;21128;50.016;20.002;2023-06-01T08:21:56;6.70;;;2.00;;
34920;SDS011;21128;50.016;20.002;2023-06-01T08:24:24;4.57;;;2.23;;
34920;SDS011;21128;50.016;20.002;2023-06-01T08:26:55;5.30;;;2.20;;
34920;SDS011;21128;50.016;20.002;2023-06-01T08:29:25;8.47;;;2.57;;
34920;SDS011;21128;50.016;20.002;2023-06-01T08:31:52;10.33;;;2.83;;
34920;SDS011;21128;50.016;20.002;2023-06-01T08:34:19;11.47;;;2.13;;
34920;SDS011;21128;50.016;20.002;2023-06-01T08:36:47;11.55;;;2.55;;
34920;SDS011;21128;50.016;20.002;2023-06-01T08:39:20;7.78;;;2.55;;
34920;SDS011;21128;50.016;20.002;2023-06-01T08:44:40;7.47;;;2.53;;
34920;SDS011;21128;50.016;20.002;2023-06-01T08:47:08;5.63;;;2.47;;
34920;SDS011;21128;50.016;20.002;2023-06-01T08:49:36;12.80;;;2.93;;
34920;SDS011;21128;50.016;20.002;2023-06-01T08:52:04;6.23;;;2.83;;
34920;SDS011;21128;50.016;20.002;2023-06-01T08:54:38;7.50;;;2.70;;
34920;SDS011;21128;50.016;20.002;2023-06-01T08:57:06;4.53;;;2.70;;
34920;SDS011;21128;50.016;20.002;2023-06-01T08:59:34;6.27;;;2.50;;
34920;SDS011;21128;50.016;20.002;2023-06-01T09:02:02;8.57;;;2.50;;
34920;SDS011;21128;50.016;20.002;2023-06-01T09:04:30;5.20;;;2.45;;
34920;SDS011;21128;50.016;20.002;2023-06-01T09:06:58;8.40;;;2.87;;
34920;SDS011;21128;50.016;20.002;2023-06-01T09:09:25;10.53;;;2.60;;
34920;SDS011;21128;50.016;20.002;2023-06-01T09:12:37;7.20;;;2.33;;
34920;SDS011;21128;50.016;20.002;2023-06-01T09:14:42;7.33;;;2.60;;
34920;SDS011;21128;50.016;20.002;2023-06-01T09:17:22;11.53;;;2.42;;
34920;SDS011;21128;50.016;20.002;2023-06-01T09:19:54;4.63;;;2.23;;
34920;SDS011;21128;50.016;20.002;2023-06-01T09:22:24;5.50;;;2.67;;
34920;SDS011;21128;50.016;20.002;2023-06-01T09:24:57;6.40;;;2.60;;
34920;SDS011;21128;50.016;20.002;2023-06-01T09:27:26;7.67;;;2.60;;
34920;SDS011;21128;50.016;20.002;2023-06-01T09:29:54;7.33;;;2.70;;
34920;SDS011;21128;50.016;20.002;2023-06-01T09:32:26;10.40;;;2.40;;
34920;SDS011;21128;50.016;20.002;2023-06-01T09:34:53;7.58;;;2.98;;
34920;SDS011;21128;50.016;20.002;2023-06-01T09:37:23;6.80;;;2.30;;
34920;SDS011;21128;50.016;20.002;2023-06-01T09:39:50;4.07;;;2.20;;
34920;SDS011;21128;50.016;20.002;2023-06-01T09:42:17;10.57;;;2.70;;
34920;SDS011;21128;50.016;20.002;2023-06-01T09:44:44;9.15;;;2.70;;
34920;SDS011;21128;50.016;20.002;2023-06-01T09:47:11;8.53;;;2.30;;
34920;SDS011;21128;50.016;20.002;2023-06-01T09:49:40;11.80;;;2.53;;
34920;SDS011;21128;50.016;20.002;2023-06-01T09:52:09;6.97;;;2.47;;
34920;SDS011;21128;50.016;20.002;2023-06-01T09:54:42;12.97;;;2.20;;
34920;SDS011;21128;50.016;20.002;2023-06-01T09:57:09;7.07;;;2.10;;
34920;SDS011;21128;50.016;20.002;2023-06-01T09:59:44;7.67;;;2.53;;
34920;SDS011;21128;50.016;20.002;2023-06-01T10:02:13;3.10;;;1.70;;
34920;SDS011;21128;50.016;20.002;2023-06-01T10:04:44;6.37;;;2.13;;
34920;SDS011;21128;50.016;20.002;2023-06-01T10:09:43;5.13;;;2.50;;
34920;SDS011;21128;50.016;20.002;2023-06-01T10:12:15;9.57;;;2.30;;
34920;SDS011;21128;50.016;20.002;2023-06-01T10:14:43;3.53;;;1.90;;
34920;SDS011;21128;50.016;20.002;2023-06-01T10:17:10;7.92;;;2.42;;
34920;SDS011;21128;50.016;20.002;2023-06-01T10:19:38;7.50;;;2.17;;
34920;SDS011;21128;50.016;20.002;2023-06-01T10:22:05;8.58;;;2.55;;
34920;SDS011;21128;50.016;20.002;2023-06-01T10:24:35;8.53;;;2.57;;
34920;SDS011;21128;50.016;20.002;2023-06-01T10:27:21;10.55;;;2.87;;
34920;SDS011;21128;50.016;20.002;2023-06-01T10:29:53;6.55;;;2.60;;
34920;SDS011;21128;50.016;20.002;2023-06-01T10:35:07;10.33;;;2.43;;
34920;SDS011;21128;50.016;20.002;2023-06-01T10:37:36;8.33;;;2.43;;
34920;SDS011;21128;50.016;20.002;2023-06-01T10:42:43;4.97;;;2.17;;
34920;SDS011;21128;50.016;20.002;2023-06-01T10:48:10;7.53;;;2.13;;
34920;SDS011;21128;50.016;20.002;2023-06-01T10:50:39;8.07;;;2.70;;
34920;SDS011;21128;50.016;20.002;2023-06-01T10:53:24;7.60;;;2.00;;
34920;SDS011;21128;50.016;20.002;2023-06-01T11:01:42;5.83;;;2.03;;
34920;SDS011;21128;50.016;20.002;2023-06-01T11:04:11;4.57;;;1.77;;
34920;SDS011;21128;50.016;20.002;2023-06-01T11:06:39;7.27;;;1.90;;
34920;SDS011;21128;50.016;20.002;2023-06-01T11:09:10;5.17;;;2.20;;
34920;SDS011;21128;50.016;20.002;2023-06-01T11:14:15;5.93;;;2.33;;
34920;SDS011;21128;50.016;20.002;2023-06-01T11:16:42;6.03;;;2.37;;
34920;SDS011;21128;50.016;20.002;2023-06-01T11:19:16;5.17;;;1.87;;
34920;SDS011;21128;50.016;20.002;2023-06-01T11:21:44;5.20;;;2.00;;
34920;SDS011;21128;50.016;20.002;2023-06-01T11:24:18;6.80;;;1.90;;
34920;SDS011;21128;50.016;20.002;2023-06-01T11:26:46;8.40;;;2.15;;
34920;SDS011;21128;50.016;20.002;2023-06-01T11:29:16;13.83;;;2.00;;
34920;SDS011;21128;50.016;20.002;2023-06-01T11:31:49;3.17;;;1.93;;
34920;SDS011;21128;50.016;20.002;2023-06-01T11:34:30;6.97;;;1.83;;
34920;SDS011;21128;50.016;20.002;2023-06-01T11:37:13;9.03;;;1.90;;
34920;SDS011;21128;50.016;20.002;2023-06-01T11:39:47;8.40;;;2.37;;
34920;SDS011;21128;50.016;20.002;2023-06-01T11:42:18;3.47;;;1.53;;
34920;SDS011;21128;50.016;20.002;2023-06-01T11:44:56;6.03;;;1.83;;
34920;SDS011;21128;50.016;20.002;2023-06-01T11:47:28;5.07;;;1.70;;
34920;SDS011;21128;50.016;20.002;2023-06-01T11:49:56;7.17;;;1.87;;
34920;SDS011;21128;50.016;20.002;2023-06-01T11:52:23;6.65;;;1.87;;
34920;SDS011;21128;50.016;20.002;2023-06-01T11:54:50;4.90;;;1.60;;
34920;SDS011;21128;50.016;20.002;2023-06-01T11:57:19;2.63;;;1.70;;
34920;SDS011;21128;50.016;20.002;2023-06-01T11:59:48;7.33;;;1.70;;
34920;SDS011;21128;50.016;20.002;2023-06-01T12:04:57;2.87;;;1.65;;
34920;SDS011;21128;50.016;20.002;2023-06-01T12:07:26;7.47;;;1.83;;
34920;SDS011;21128;50.016;20.002;2023-06-01T12:09:54;6.07;;;1.90;;
34920;SDS011;21128;50.016;20.002;2023-06-01T12:12:22;7.33;;;1.83;;
34920;SDS011;21128;50.016;20.002;2023-06-01T12:14:51;7.93;;;1.67;;
34920;SDS011;21128;50.016;20.002;2023-06-01T12:17:19;6.35;;;1.80;;
34920;SDS011;21128;50.016;20.002;2023-06-01T12:19:49;5.77;;;2.10;;
34920;SDS011;21128;50.016;20.002;2023-06-01T12:22:17;5.30;;;1.90;;
34920;SDS011;21128;50.016;20.002;2023-06-01T12:24:44;3.90;;;1.80;;
34920;SDS011;21128;50.016;20.002;2023-06-01T12:27:16;8.20;;;1.70;;
34920;SDS011;21128;50.016;20.002;2023-06-01T12:29:47;4.77;;;1.90;;
34920;SDS011;21128;50.016;20.002;2023-06-01T12:32:17;5.80;;;1.70;;
34920;SDS011;21128;50.016;20.002;2023-06-01T12:35:01;3.60;;;2.03;;
34920;SDS011;21128;50.016;20.002;2023-06-01T12:37:29;4.10;;;2.03;;
34920;SDS011;21128;50.016;20.002;2023-06-01T12:39:56;6.53;;;2.40;;
34920;SDS011;21128;50.016;20.002;2023-06-01T12:42:39;8.50;;;1.83;;
34920;SDS011;21128;50.016;20.002;2023-06-01T12:45:07;8.05;;;2.65;;
34920;SDS011;21128;50.016;20.002;2023-06-01T12:47:41;3.27;;;2.00;;
34920;SDS011;21128;50.016;20.002;2023-06-01T12:50:09;7.07;;;2.10;;
34920;SDS011;21128;50.016;20.002;2023-06-01T12:52:39;8.33;;;2.10;;
34920;SDS011;21128;50.016;20.002;2023-06-01T12:55:07;7.60;;;2.50;;
34920;SDS011;21128;50.016;20.002;2023-06-01T12:57:36;5.30;;;1.97;;
34920;SDS011;21128;50.016;20.002;2023-06-01T13:00:04;6.87;;;2.13;;
34920;SDS011;21128;50.016;20.002;2023-06-01T13:02:33;4.67;;;1.70;;
34920;SDS011;21128;50.016;20.002;2023-06-01T13:05:01;6.73;;;2.13;;
34920;SDS011;21128;50.016;20.002;2023-06-01T13:07:28;6.17;;;1.83;;
34920;SDS011;21128;50.016;20.002;2023-06-01T13:09:55;6.30;;;1.90;;
34920;SDS011;21128;50.016;20.002;2023-06-01T13:12:25;4.47;;;1.80;;
34920;SDS011;21128;50.016;20.002;2023-06-01T13:14:54;10.40;;;2.37;;
34920;SDS011;21128;50.016;20.002;2023-06-01T13:17:22;7.17;;;1.73;;
34920;SDS011;21128;50.016;20.002;2023-06-01T13:19:49;3.17;;;1.73;;
34920;SDS011;21128;50.016;20.002;2023-06-01T13:22:16;3.77;;;1.83;;
34920;SDS011;21128;50.016;20.002;2023-06-01T13:24:43;5.45;;;2.10;;
34920;SDS011;21128;50.016;20.002;2023-06-01T13:27:10;6.13;;;2.13;;
34920;SDS011;21128;50.016;20.002;2023-06-01T13:29:37;3.60;;;2.10;;
34920;SDS011;21128;50.016;20.002;2023-06-01T13:32:04;8.47;;;2.50;;
34920;SDS011;21128;50.016;20.002;2023-06-01T13:34:31;8.30;;;1.95;;
34920;SDS011;21128;50.016;20.002;2023-06-01T13:36:59;2.97;;;2.13;;
34920;SDS011;21128;50.016;20.002;2023-06-01T13:39:27;7.67;;;1.87;;
34920;SDS011;21128;50.016;20.002;2023-06-01T13:41:53;4.07;;;1.97;;
34920;SDS011;21128;50.016;20.002;2023-06-01T13:44:20;8.83;;;2.23;;
34920;SDS011;21128;50.016;20.002;2023-06-01T13:46:48;5.77;;;2.13;;
34920;SDS011;21128;50.016;20.002;2023-06-01T13:49:16;4.70;;;1.90;;
34920;SDS011;21128;50.016;20.002;2023-06-01T13:51:42;4.83;;;1.60;;
34920;SDS011;21128;50.016;20.002;2023-06-01T13:54:10;4.30;;;1.73;;
34920;SDS011;21128;50.016;20.002;2023-06-01T13:56:39;4.85;;;2.30;;
34920;SDS011;21128;50.016;20.002;2023-06-01T13:59:06;7.20;;;2.07;;
34920;SDS011;21128;50.016;20.002;2023-06-01T14:01:33;4.30;;;2.17;;
34920;SDS011;21128;50.016;20.002;2023-06-01T14:04:01;7.97;;;1.80;;
34920;SDS011;21128;50.016;20.002;2023-06-01T14:06:29;7.60;;;1.40;;
34920;SDS011;21128;50.016;20.002;2023-06-01T14:08:57;7.70;;;2.30;;
34920;SDS011;21128;50.016;20.002;2023-06-01T14:11:24;4.83;;;1.73;;
34920;SDS011;21128;50.016;20.002;2023-06-01T14:13:51;7.17;;;1.60;;
34920;SDS011;21128;50.016;20.002;2023-06-01T14:16:18;3.62;;;1.50;;
34920;SDS011;21128;50.016;20.002;2023-06-01T14:18:45;2.83;;;1.70;;
34920;SDS011;21128;50.016;20.002;2023-06-01T14:21:12;8.67;;;2.10;;
34920;SDS011;21128;50.016;20.002;2023-06-01T14:23:39;5.03;;;1.90;;
34920;SDS011;21128;50.016;20.002;2023-06-01T14:26:08;5.80;;;1.47;;
34920;SDS011;21128;50.016;20.002;2023-06-01T14:28:35;4.53;;;1.60;;
34920;SDS011;21128;50.016;20.002;2023-06-01T14:31:02;6.87;;;1.87;;
34920;SDS011;21128;50.016;20.002;2023-06-01T14:33:29;3.90;;;1.80;;
34920;SDS011;21128;50.016;20.002;2023-06-01T14:35:56;5.20;;;1.70;;
34920;SDS011;21128;50.016;20.002;2023-06-01T14:38:23;6.03;;;1.70;;
34920;SDS011;21128;50.016;20.002;2023-06-01T14:40:50;6.83;;;2.17;;
34920;SDS011;21128;50.016;20.002;2023-06-01T14:43:18;3.20;;;1.47;;
34920;SDS011;21128;50.016;20.002;2023-06-01T14:45:45;4.13;;;1.93;;
34920;SDS011;21128;50.016;20.002;2023-06-01T14:48:12;6.13;;;1.93;;
34920;SDS011;21128;50.016;20.002;2023-06-01T14:50:39;4.72;;;1.82;;
34920;SDS011;21128;50.016;20.002;2023-06-01T14:53:06;6.23;;;2.20;;
34920;SDS011;21128;50.016;20.002;2023-06-01T14:55:34;6.17;;;1.97;;
34920;SDS011;21128;50.016;20.002;2023-06-01T14:58:01;10.90;;;2.70;;
34920;SDS011;21128;50.016;20.002;2023-06-01T15:00:29;7.90;;;2.17;;
34920;SDS011;21128;50.016;20.002;2023-06-01T15:02:56;9.60;;;1.93;;
34920;SDS011;21128;50.016;20.002;2023-06-01T15:05:23;6.40;;;2.00;;
34920;SDS011;21128;50.016;20.002;2023-06-01T15:07:50;8.88;;;2.00;;
34920;SDS011;21128;50.016;20.002;2023-06-01T15:10:17;6.10;;;2.23;;
34920;SDS011;21128;50.016;20.002;2023-06-01T15:12:44;7.07;;;2.33;;